No Warnings, Watches, or Advisories

Active alerts


No alerts

Hours of Daylight

11 hrs 19 min 57 sec
of Daylight Today
47.2% Day 52.8% Night Which is
2 min 42 sec Longer
Than Yesterday

South Webcam more information South Webcam


NorthWest Webcam more information NorthWest Webcam


You find our weather info also at:

UK Metoffice

Weather Underground

Mid-Atlantic Weather Network

WeatherlinkIP

Citizen Weather Observer Program (CWOP)

HAMweather, WeatherForYou, PWS Weather



Nearby METAR Reports

   
KDUJ - Du Bois, Pennsylvania, USA
Distance from station: NNE 16 mi
Updated: Mar 1 2021 12:53 am
Mist, Overcast  
Mist, Overcast  
   Wind: SE 4.6 mph
Wind: SE 4.6 mph
Temperature: 39.2°F
Wind Chill: 35.6°F
Dew Point: 37.4°F
Humidity: 93%
Barometer: 29.71 inHg
Clouds: Overcast
Visibility: 3 mi
Cloud details: Overcast 300 ft
KDUJ 010553Z AUTO 13004KT 3/4SM BR VV003 04/03 A2971 RMK AO2 RAE50 SLP070 P0008 60016 T00440033 10050 20033 58008
KIDI - Indiana/Stewart, Pennsylvania, USA
Distance from station: SSW 23 mi
Updated: Mar 1 2021 1:35 am
Fog, Overcast  
Fog, Overcast  
   Wind: West 3.5 mph
Wind: West 3.5 mph
Temperature: 53.6°F
Dew Point: 53.6°F
Humidity: 100%
Barometer: 29.74 inHg
Clouds: Overcast
Visibility: 1 mi
Cloud details: Overcast 600 ft
KIDI 010635Z AUTO 26003KT 1/4SM FG OVC006 12/12 A2974 RMK A01
KFIG - Clearfield, Pennsylvania, USA
Distance from station: ENE 31 mi
Updated: Mar 1 2021 1:43 am
Light Rain, Fog, Overcast  
Light Rain, Fog, Overcast  
   Wind: North 5.8 mph
Wind: North 5.8 mph
Temperature: 35.6°F
Wind Chill: 30.2°F
Dew Point: 35.6°F
Humidity: 100%
Barometer: 29.72 inHg
Clouds: Overcast
Visibility: 1 mi
Cloud details: Overcast 500 ft
KFIG 010643Z AUTO 01005KT 1/2SM -RA FG VV005 02/02 A2972 RMK AO2 P0005 T00220022
KJST - Johnstown, Pennsylvania, USA
Distance from station: S 44 mi
Updated: Mar 1 2021 1:16 am
Light Rain, Overcast  
Light Rain, Overcast  
   Wind: SSW 10.4 mph
Wind: SSW 10.4 mph
Temperature: 48.2°F
Wind Chill: 44.6°F
Dew Point: 46.4°F
Humidity: 94%
Barometer: 29.73 inHg
Clouds: Overcast
Visibility: 7 mi
Cloud details: Few Clouds 200 ft,
Partly Cloudy 1800 ft,
Overcast 7000 ft
KJST 010616Z AUTO 21009KT 7SM -RA FEW002 SCT018 OVC070 09/08 A2973 RMK AO2 P0001 T00940083
KPIT - Pittsburgh, Pennsylvania, USA
Distance from station: WSW 74 mi
Updated: Mar 1 2021 1:35 am
Light Rain, Overcast  
Light Rain, Overcast  
   Wind: West 10.4 mph
Wind: West 10.4 mph
Temperature: 55.4°F
Dew Point: 53.6°F
Humidity: 94%
Barometer: 29.73 inHg
Clouds: Overcast
Visibility: 9 mi
Cloud details: Partly Cloudy 400 ft,
Mostly Cloudy 1600 ft,
Overcast 6000 ft
KPIT 010635Z 26009KT 9SM -RA SCT004 BKN016 OVC060 13/12 A2973 RMK AO2 P0001 T01330122
KLBE - Latrobe/Westmorl, Pennsylvania, USA
Distance from station: SSW 52 mi
Updated: Mar 1 2021 1:35 am
Light Rain, Overcast  
Light Rain, Overcast  
   Wind: SSW 12.7 mph
Wind: SSW 12.7 mph
Temperature: 57.2°F
Dew Point: 57.2°F
Humidity: 100%
Barometer: 29.73 inHg
Clouds: Overcast
Visibility: 6 mi
Cloud details: Partly Cloudy 2000 ft,
Mostly Cloudy 2700 ft,
Overcast 4400 ft
KLBE 010635Z AUTO 20011KT 6SM -RA SCT020 BKN027 OVC044 14/14 A2973 RMK AO2
KBTP - Butler Co., Pennsylvania, USA
Distance from station: WSW 52 mi
Updated: Mar 1 2021 12:56 am
Light Rain, Mist, Overcast  
Light Rain, Mist, Overcast  
   Wind: WSW 8.1 mph
Wind: WSW 8.1 mph
Temperature: 53.6°F
Dew Point: 53.6°F
Humidity: 100%
Barometer: 29.71 inHg
Clouds: Overcast
Visibility: 4 mi
Cloud details: Overcast 700 ft
KBTP 010556Z AUTO 24007KT 4SM -RA BR OVC007 12/12 A2971 RMK AO2 CIG 004V011 SLP067 P0002 60007 T01220117 10122 20078 56013
KUCP - New Castle Muni, Pennsylvania, USA
Distance from station: W 75 mi
Updated: Mar 1 2021 1:20 am
Overcast  
Overcast  
   Wind: SW 5.8 mph
Wind: SW 5.8 mph
Temperature: 55.4°F
Dew Point: 53.6°F
Humidity: 94%
Clouds: Overcast
Visibility: 10 mi
Cloud details: Few Clouds 1000 ft,
Mostly Cloudy 1300 ft,
Overcast 7500 ft
KUCP 010620Z AUTO 23005KT 10SM FEW010 BKN013 OVC075 13/12 RMK AO2 P0001 PWINO $
KFKL - Franklin, Pennsylvania, USA
Distance from station: WNW 54 mi
Updated: Mar 1 2021 12:56 am
Light Rain, Mist, Overcast  
Light Rain, Mist, Overcast  
   Wind: SW 6.9 mph
Wind: SW 6.9 mph
Temperature: 51.8°F
Dew Point: 51.8°F
Humidity: 100%
Barometer: 29.68 inHg
Clouds: Overcast
Visibility: 6 mi
Cloud details: Overcast 500 ft
KFKL 010556Z AUTO 23006KT 6SM -RA BR OVC005 11/11 A2968 RMK AO2 RAB19 CIG 003V007 SLP056 P0002 60005 T01060106 10106 20050 58019
KAOO - Altoona, Pennsylvania, USA
Distance from station: SE 57 mi
Updated: Mar 1 2021 1:40 am
Fog, Overcast  
Fog, Overcast  
   Wind: Calm
Wind: Calm
Temperature: 39.2°F
Dew Point: 37.4°F
Humidity: 93%
Barometer: 29.75 inHg
Clouds: Overcast
Visibility: 1 mi
Cloud details: Mostly Cloudy 300 ft,
Overcast 7500 ft
KAOO 010640Z AUTO 00000KT 1/4SM FG BKN003 OVC075 04/03 A2975 RMK AO2 T00390028
KUNV - State College, Pennsylvania, USA
Distance from station: E 61 mi
Updated: Mar 1 2021 1:35 am
Light Drizzle, Overcast  
Light Drizzle, Overcast  
   Wind: Calm
Wind: Calm
Temperature: 37.4°F
Dew Point: 37.4°F
Humidity: 100%
Barometer: 29.77 inHg
Clouds: Overcast
Visibility: 1 mi
Cloud details: Overcast 300 ft
KUNV 010635Z AUTO 00000KT 1/2SM -DZ OVC003 03/03 A2977 RMK AO2 T00280028
KBFD - Bradford, Pennsylvania, USA
Distance from station: NNE 62 mi
Updated: Mar 1 2021 1:34 am
Light Rain, Mist, Overcast  
Light Rain, Mist, Overcast  
   Wind: SSE 6.9 mph
Wind: SSE 6.9 mph
Temperature: 41°F
Wind Chill: 35.6°F
Dew Point: 39.2°F
Humidity: 93%
Barometer: 29.66 inHg
Clouds: Overcast
Visibility: 1 mi
Cloud details: Overcast 300 ft
KBFD 010634Z AUTO 15006KT 1SM -RA BR VV003 05/04 A2966 RMK AO2 RAE00B06 P0001 T00500039

Script developed by  Saratoga-weather.org Adapted for the template by  Weerstation Leuven

Equipment we use:

Weather-station
Davis VP2

Weather-program
Cumulus

Weather-server
Dell Latitude e5450

Provider
Host On A Rope

Davis VP2

Cumulus

Dell Latitude e5450

Host On A Rope